createdAt,value
2022-11-10T00:08:18.960Z,72.05
2022-11-10T00:18:46.470Z,71.88
2022-11-10T00:29:13.788Z,72.03
2022-11-10T00:39:41.032Z,72.29
2022-11-10T00:50:09.900Z,72.46
2022-11-10T01:00:37.455Z,72.58
2022-11-10T01:11:09.119Z,72.51
2022-11-10T01:21:36.347Z,72.49
2022-11-10T01:32:03.622Z,72.42
2022-11-10T01:42:45.372Z,72.58
2022-11-10T01:53:18.174Z,72.40
2022-11-10T02:03:50.363Z,72.47
2022-11-10T02:14:18.494Z,72.44
2022-11-10T02:24:45.858Z,72.47
2022-11-10T02:35:13.102Z,72.23
2022-11-10T02:45:42.307Z,72.28
2022-11-10T02:56:10.647Z,72.49
2022-11-10T03:06:37.983Z,72.66
2022-11-10T03:17:05.336Z,72.69
2022-11-10T03:27:32.674Z,72.80
2022-11-10T03:38:00.145Z,72.87
2022-11-10T03:48:27.392Z,72.88
2022-11-10T03:58:54.597Z,73.07
2022-11-10T04:09:21.881Z,73.04
2022-11-10T04:19:49.200Z,73.37
2022-11-10T04:30:16.882Z,72.84
2022-11-10T04:40:44.209Z,73.05
2022-11-10T04:51:12.698Z,73.01
2022-11-10T05:01:40.090Z,73.02
2022-11-10T05:12:07.630Z,73.04
2022-11-10T05:22:35.359Z,73.27
2022-11-10T05:33:03.049Z,73.23
2022-11-10T05:43:30.425Z,73.37
2022-11-10T05:53:57.931Z,73.39
2022-11-10T06:04:25.552Z,73.54
2022-11-10T06:14:53.007Z,73.73
2022-11-10T06:25:20.449Z,74.03
2022-11-10T06:35:47.800Z,74.35
2022-11-10T06:46:15.040Z,74.74
2022-11-10T06:56:42.325Z,75.21
2022-11-10T07:07:10.071Z,75.28
2022-11-10T07:17:41.977Z,75.31
2022-11-10T07:28:11.519Z,75.50
2022-11-10T07:38:38.857Z,75.61
2022-11-10T07:49:06.252Z,75.48
2022-11-10T07:59:33.601Z,75.89
2022-11-10T08:10:00.917Z,76.04
2022-11-10T08:20:28.295Z,76.13
2022-11-10T08:30:56.056Z,76.17
2022-11-10T08:41:23.548Z,76.13
2022-11-10T08:51:50.907Z,76.25
2022-11-10T09:02:18.248Z,76.38
2022-11-10T09:12:45.592Z,76.37
2022-11-10T09:23:15.415Z,76.47
2022-11-10T09:33:42.796Z,76.32
2022-11-10T09:44:17.779Z,76.06
2022-11-10T09:54:50.311Z,76.33
2022-11-10T10:05:36.077Z,76.05
2022-11-10T10:16:13.080Z,76.05
2022-11-10T10:26:43.451Z,76.21
2022-11-10T10:37:23.925Z,76.39
2022-11-10T10:47:52.706Z,76.32
2022-11-10T10:58:26.616Z,75.94
2022-11-10T11:09:00.478Z,76.04
2022-11-10T11:19:31.810Z,75.93
2022-11-10T11:30:13.284Z,75.85
2022-11-10T11:40:49.642Z,75.88
2022-11-10T11:51:23.679Z,75.60
2022-11-10T12:02:11.555Z,75.27
2022-11-10T12:12:59.260Z,75.04
2022-11-10T12:23:37.114Z,74.52
2022-11-10T12:34:11.649Z,74.29
2022-11-10T12:44:44.586Z,74.02
2022-11-10T12:55:15.888Z,73.90
2022-11-10T13:05:45.569Z,73.66
2022-11-10T13:16:33.232Z,73.35
2022-11-10T13:27:02.090Z,73.11
2022-11-10T13:37:50.875Z,73.13
2022-11-10T13:48:28.078Z,72.78
2022-11-10T13:58:55.956Z,72.58
2022-11-10T14:09:32.239Z,72.59
2022-11-10T14:20:00.193Z,72.34
2022-11-10T14:30:26.725Z,72.26
2022-11-10T14:40:57.772Z,72.09
2022-11-10T14:51:25.671Z,72.21
2022-11-10T15:01:56.080Z,72.24
2022-11-10T15:12:29.515Z,72.32
2022-11-10T15:22:58.365Z,72.49
2022-11-10T15:33:28.429Z,72.75
2022-11-10T15:43:55.813Z,72.89
2022-11-10T15:54:26.785Z,72.97
2022-11-10T16:04:59.728Z,73.24
2022-11-10T16:15:27.643Z,73.44
2022-11-10T16:25:57.441Z,73.28
2022-11-10T16:36:28.472Z,73.00
2022-11-10T16:46:57.490Z,72.63
2022-11-10T16:57:25.120Z,72.16
2022-11-10T17:07:52.590Z,71.64
2022-11-10T17:18:24.771Z,71.48
2022-11-10T17:28:52.170Z,70.85
2022-11-10T17:39:20.416Z,70.34
2022-11-10T17:49:47.947Z,69.80
2022-11-10T18:00:19.088Z,69.32
2022-11-10T18:10:49.931Z,68.93
2022-11-10T18:21:17.389Z,68.91
2022-11-10T18:31:44.958Z,68.57
2022-11-10T18:42:12.721Z,68.28
2022-11-10T18:52:40.055Z,68.40
2022-11-10T19:03:07.485Z,68.29
2022-11-10T19:13:35.028Z,68.58
2022-11-10T19:24:02.341Z,68.11
2022-11-10T19:34:31.637Z,68.27
2022-11-10T19:44:59.123Z,68.19
2022-11-10T19:55:26.456Z,68.16
2022-11-10T20:06:01.826Z,68.37
2022-11-10T20:16:29.265Z,68.30
2022-11-10T20:26:56.585Z,68.12
2022-11-10T20:37:24.009Z,68.02
2022-11-10T20:47:52.983Z,68.18
2022-11-10T20:58:20.316Z,67.46
2022-11-10T21:08:47.586Z,66.83
2022-11-10T21:19:14.895Z,66.59
2022-11-10T21:29:42.481Z,66.18
2022-11-10T21:40:11.703Z,65.84
2022-11-10T21:50:39.090Z,64.92
2022-11-10T22:01:08.904Z,65.14
2022-11-10T22:11:53.732Z,65.64
2022-11-10T22:22:20.988Z,64.98
2022-11-10T22:32:48.333Z,64.53
2022-11-10T22:43:33.383Z,64.30
2022-11-10T22:54:01.154Z,64.16
2022-11-10T23:04:28.564Z,64.07
2022-11-10T23:14:55.894Z,64.30
2022-11-10T23:25:23.257Z,64.15
2022-11-10T23:35:50.517Z,64.36
2022-11-10T23:46:18.074Z,64.13
2022-11-10T23:56:45.354Z,64.71
